sensor_id;sensor_type;location;lat;lon;timestamp;pressure;altitude;pressure_sealevel;temperature;humidity
69524;BME280;56723;42.694;23.286;2022-11-21T07:48:18;94004.03;;;3.91;100.00
69524;BME280;56723;42.694;23.286;2022-11-21T07:50:45;94033.34;;;3.89;100.00
69524;BME280;56723;42.694;23.286;2022-11-21T07:53:29;94021.97;;;3.91;100.00
69524;BME280;56723;42.694;23.286;2022-11-21T07:55:57;94039.84;;;4.01;100.00
69524;BME280;56723;42.694;23.286;2022-11-21T07:58:25;94037.50;;;4.07;100.00
69524;BME280;56723;42.694;23.286;2022-11-21T08:00:52;94041.81;;;4.07;100.00
69524;BME280;56723;42.694;23.286;2022-11-21T08:03:19;94048.22;;;4.11;100.00
69524;BME280;56723;42.694;23.286;2022-11-21T08:05:46;94055.63;;;4.14;100.00
69524;BME280;56723;42.694;23.286;2022-11-21T08:08:13;94064.34;;;4.21;100.00
69524;BME280;56723;42.694;23.286;2022-11-21T08:10:42;94070.44;;;4.28;100.00
69524;BME280;56723;42.694;23.286;2022-11-21T08:13:11;94080.09;;;4.26;100.00
69524;BME280;56723;42.694;23.286;2022-11-21T08:15:39;94089.88;;;4.31;100.00
69524;BME280;56723;42.694;23.286;2022-11-21T08:18:10;94093.25;;;4.31;100.00
69524;BME280;56723;42.694;23.286;2022-11-21T08:20:38;94090.66;;;4.31;100.00
69524;BME280;56723;42.694;23.286;2022-11-21T08:23:06;94096.91;;;4.29;100.00
69524;BME280;56723;42.694;23.286;2022-11-21T08:25:36;94109.44;;;4.32;100.00
69524;BME280;56723;42.694;23.286;2022-11-21T08:28:04;94103.63;;;4.30;100.00
69524;BME280;56723;42.694;23.286;2022-11-21T08:30:32;94119.25;;;4.36;100.00
69524;BME280;56723;42.694;23.286;2022-11-21T08:32:59;94116.09;;;4.42;100.00
69524;BME280;56723;42.694;23.286;2022-11-21T08:35:27;94114.34;;;4.43;100.00
69524;BME280;56723;42.694;23.286;2022-11-21T08:37:58;94118.66;;;4.42;100.00
69524;BME280;56723;42.694;23.286;2022-11-21T08:40:27;94114.81;;;4.46;100.00
69524;BME280;56723;42.694;23.286;2022-11-21T08:42:57;94109.06;;;4.44;100.00
69524;BME280;56723;42.694;23.286;2022-11-21T08:45:24;94112.59;;;4.51;100.00
69524;BME280;56723;42.694;23.286;2022-11-21T08:47:55;94116.03;;;4.60;100.00
69524;BME280;56723;42.694;23.286;2022-11-21T08:50:22;94110.69;;;4.53;100.00
69524;BME280;56723;42.694;23.286;2022-11-21T08:52:50;94113.78;;;4.57;100.00
69524;BME280;56723;42.694;23.286;2022-11-21T08:55:17;94109.31;;;4.59;100.00
69524;BME280;56723;42.694;23.286;2022-11-21T08:57:45;94108.19;;;4.62;100.00
69524;BME280;56723;42.694;23.286;2022-11-21T09:00:14;94112.38;;;4.63;100.00
69524;BME280;56723;42.694;23.286;2022-11-21T09:02:41;94097.94;;;4.62;100.00
69524;BME280;56723;42.694;23.286;2022-11-21T09:05:08;94107.25;;;4.63;100.00
69524;BME280;56723;42.694;23.286;2022-11-21T09:07:35;94107.41;;;4.61;100.00
69524;BME280;56723;42.694;23.286;2022-11-21T09:10:04;94100.34;;;4.63;100.00
69524;BME280;56723;42.694;23.286;2022-11-21T09:12:31;94117.16;;;4.58;100.00
69524;BME280;56723;42.694;23.286;2022-11-21T09:14:58;94113.94;;;4.56;100.00
69524;BME280;56723;42.694;23.286;2022-11-21T09:17:43;94118.09;;;4.57;100.00
69524;BME280;56723;42.694;23.286;2022-11-21T09:20:32;94135.34;;;4.46;100.00
69524;BME280;56723;42.694;23.286;2022-11-21T09:23:05;94130.81;;;4.40;100.00
69524;BME280;56723;42.694;23.286;2022-11-21T09:25:32;94125.03;;;4.38;100.00
69524;BME280;56723;42.694;23.286;2022-11-21T09:28:04;94114.78;;;4.38;100.00
69524;BME280;56723;42.694;23.286;2022-11-21T09:30:32;94123.94;;;4.41;100.00
69524;BME280;56723;42.694;23.286;2022-11-21T09:33:00;94128.19;;;4.32;100.00
69524;BME280;56723;42.694;23.286;2022-11-21T09:35:28;94118.22;;;4.29;100.00
69524;BME280;56723;42.694;23.286;2022-11-21T09:37:56;94123.34;;;4.29;100.00
69524;BME280;56723;42.694;23.286;2022-11-21T09:40:24;94141.63;;;4.26;100.00
69524;BME280;56723;42.694;23.286;2022-11-21T09:45:49;94131.38;;;4.26;100.00
69524;BME280;56723;42.694;23.286;2022-11-21T09:48:26;94146.44;;;4.29;100.00
69524;BME280;56723;42.694;23.286;2022-11-21T09:51:00;94143.88;;;4.29;100.00
69524;BME280;56723;42.694;23.286;2022-11-21T09:56:16;94150.19;;;4.17;100.00
69524;BME280;56723;42.694;23.286;2022-11-21T10:01:39;94149.75;;;4.04;100.00
69524;BME280;56723;42.694;23.286;2022-11-21T10:04:06;94143.31;;;4.00;100.00
69524;BME280;56723;42.694;23.286;2022-11-21T10:12:32;94166.44;;;3.90;100.00
69524;BME280;56723;42.694;23.286;2022-11-21T10:17:57;94159.19;;;3.86;100.00
69524;BME280;56723;42.694;23.286;2022-11-21T10:25:55;94159.53;;;3.91;100.00
69524;BME280;56723;42.694;23.286;2022-11-21T10:28:29;94163.72;;;3.92;100.00
69524;BME280;56723;42.694;23.286;2022-11-21T10:30:58;94165.28;;;4.02;100.00
69524;BME280;56723;42.694;23.286;2022-11-21T10:33:31;94175.72;;;4.09;100.00
69524;BME280;56723;42.694;23.286;2022-11-21T10:36:04;94171.78;;;4.14;100.00
69524;BME280;56723;42.694;23.286;2022-11-21T10:38:39;94161.81;;;4.11;100.00
69524;BME280;56723;42.694;23.286;2022-11-21T10:41:22;94160.72;;;4.14;100.00
69524;BME280;56723;42.694;23.286;2022-11-21T12:03:44;94172.66;;;4.41;100.00
69524;BME280;56723;42.694;23.286;2022-11-21T12:12:25;94180.53;;;4.65;100.00
69524;BME280;56723;42.694;23.286;2022-11-21T12:15:16;94183.31;;;4.72;100.00
69524;BME280;56723;42.694;23.286;2022-11-21T12:21:01;94175.25;;;4.67;100.00
69524;BME280;56723;42.694;23.286;2022-11-21T12:23:34;94186.47;;;4.66;100.00
